Accueil
METAR-TAF:

METAR-TAF

Aéroports :

Srinagar, Inde

latitude: 33-59-14N, longitude: 074-46-27E, altitude: 1655 m

METAR: absent

Heure: 11:28 (05:58 UTC)

Prévision

Le bulletin a été fait il y a 2 heures et 28 minutes, à 03:30 UTC
Prévision valable du 08 à 06 UTC au 08 à 18 UTC
Vent 2 kt de direction variable
Visibilité: 0800 m
Ciel clair
brouillard
Temporairement
du 08 à 09 UTC au 08 à 10 UTC
Visibilité: 1000 m
brume

TAF: VISR 080330Z 0806/0818 VRB02KT 0800 FG SKC TEMPO 0809/0810 1000 BR

Observations et prévisions météorologiques de plus de 4000 aéroports (messages METAR et TAF).

Les stations disponibles sont représentées par des disques jaunes et rouges sur la carte.

Passer la souris dessus pour voir le nom de la station.

Cliquer dessus pour voir les observations et prévisions météorologiques.

Pour changer de carte: cliquez sur les boutons verts avec une croix noire pour zoomer, sur le bouton vert avec un tiret pour effectuer un zoom arrière, ou sur les flèches vertes pour les cartes adjacentes.


METAR-TAF: